createdAt,value
2023-02-12T00:00:21.801Z,43.47
2023-02-12T00:03:00.673Z,44.33
2023-02-12T00:05:27.358Z,44.80
2023-02-12T00:07:54.362Z,47.30
2023-02-12T00:10:21.094Z,48.03
2023-02-12T00:12:47.703Z,46.15
2023-02-12T00:15:16.012Z,49.17
2023-02-12T00:17:42.627Z,45.13
2023-02-12T00:20:10.200Z,46.50
2023-02-12T00:22:36.761Z,45.50
2023-02-12T00:25:03.876Z,46.05
2023-02-12T00:27:32.882Z,47.37
2023-02-12T00:29:59.508Z,44.47
2023-02-12T00:32:30.144Z,50.00
2023-02-12T00:34:56.781Z,44.80
2023-02-12T00:37:23.417Z,44.33
2023-02-12T00:39:50.271Z,44.50
2023-02-12T00:42:16.897Z,47.58
2023-02-12T00:44:43.694Z,41.80
2023-02-12T00:47:10.681Z,47.63
2023-02-12T00:49:38.651Z,46.10
2023-02-12T00:52:05.606Z,43.50
2023-02-12T00:54:32.483Z,47.33
2023-02-12T00:57:02.343Z,49.33
2023-02-12T00:59:29.169Z,43.20
2023-02-12T01:01:55.916Z,45.35
2023-02-12T01:04:22.818Z,42.87
2023-02-12T01:06:51.070Z,43.47
2023-02-12T01:09:17.677Z,42.90
2023-02-12T01:11:44.233Z,41.80
2023-02-12T01:14:10.826Z,48.50
2023-02-12T01:16:37.883Z,43.73
2023-02-12T01:19:05.195Z,42.92
2023-02-12T01:21:34.125Z,44.33
2023-02-12T01:24:02.248Z,46.28
2023-02-12T01:26:30.075Z,49.67
2023-02-12T01:28:58.905Z,43.07
2023-02-12T01:31:28.174Z,42.50
2023-02-12T01:33:57.188Z,49.97
2023-02-12T01:36:24.722Z,44.05
2023-02-12T01:38:52.007Z,45.15
2023-02-12T01:41:22.616Z,46.00
2023-02-12T01:44:05.758Z,46.88
2023-02-12T01:46:32.657Z,48.38
2023-02-12T01:49:00.562Z,48.80
2023-02-12T01:51:29.203Z,47.72
2023-02-12T01:54:00.548Z,47.23
2023-02-12T01:56:29.609Z,48.65
2023-02-12T01:58:56.547Z,49.08
2023-02-12T02:01:26.373Z,45.78
2023-02-12T02:03:57.298Z,52.40
2023-02-12T02:06:28.713Z,44.57
2023-02-12T02:08:56.807Z,44.55
2023-02-12T02:11:23.486Z,50.10
2023-02-12T02:13:51.795Z,48.40
2023-02-12T02:16:24.365Z,46.72
2023-02-12T02:18:56.588Z,46.83
2023-02-12T02:21:51.426Z,46.38
2023-02-12T02:24:57.333Z,45.88
2023-02-12T02:27:30.833Z,42.78
2023-02-12T02:30:33.017Z,48.72
2023-02-12T02:33:13.212Z,48.03
2023-02-12T02:35:46.814Z,48.53
2023-02-12T02:38:26.874Z,46.85
2023-02-12T02:41:00.896Z,51.90
2023-02-12T02:43:31.556Z,49.60
2023-02-12T02:46:05.505Z,47.67
2023-02-12T02:48:37.719Z,40.35
2023-02-12T02:51:09.693Z,49.50
2023-02-12T02:53:42.265Z,42.65
2023-02-12T02:56:14.004Z,47.50
2023-02-12T02:58:44.223Z,45.47
2023-02-12T03:01:15.621Z,47.08
2023-02-12T03:03:50.968Z,40.60
2023-02-12T03:06:24.162Z,45.20
2023-02-12T03:08:55.129Z,47.15
2023-02-12T03:11:25.443Z,44.67
2023-02-12T03:14:00.717Z,45.83
2023-02-12T03:16:31.022Z,50.15
2023-02-12T03:19:06.686Z,46.97
2023-02-12T03:21:37.495Z,47.40
2023-02-12T03:24:11.814Z,46.47
2023-02-12T03:26:43.519Z,43.75
2023-02-12T03:29:10.364Z,49.25
2023-02-12T03:31:46.955Z,46.15
2023-02-12T03:34:24.626Z,47.35
2023-02-12T03:36:57.304Z,49.10
2023-02-12T03:39:29.899Z,47.75
2023-02-12T03:42:02.238Z,48.33
2023-02-12T03:44:41.975Z,46.42
2023-02-12T03:47:17.625Z,47.08
2023-02-12T03:49:54.382Z,44.63
2023-02-12T03:52:21.293Z,49.08
2023-02-12T03:54:48.099Z,46.80
2023-02-12T03:57:20.056Z,49.15
2023-02-12T03:59:47.040Z,48.20
2023-02-12T04:02:16.069Z,47.83
2023-02-12T04:04:46.755Z,47.40
2023-02-12T04:07:13.893Z,47.50
2023-02-12T04:09:40.810Z,49.60
2023-02-12T04:12:22.879Z,47.30
2023-02-12T04:14:55.120Z,47.50
2023-02-12T04:17:30.059Z,47.42
2023-02-12T04:20:07.910Z,52.65
2023-02-12T04:22:45.419Z,47.05
2023-02-12T04:25:21.926Z,49.20
2023-02-12T04:27:56.395Z,49.87
2023-02-12T04:30:29.241Z,49.38
2023-02-12T04:33:03.750Z,50.03
2023-02-12T04:35:35.827Z,49.67
2023-02-12T04:38:10.183Z,50.65
2023-02-12T04:40:39.158Z,47.77
2023-02-12T04:43:05.843Z,47.47
2023-02-12T04:45:35.163Z,43.50
2023-02-12T04:48:02.184Z,44.22
2023-02-12T04:50:40.076Z,45.03
2023-02-12T04:53:06.811Z,47.90
2023-02-12T04:55:33.388Z,46.25
2023-02-12T04:58:00.215Z,50.22
2023-02-12T05:00:26.801Z,45.65
2023-02-12T05:02:53.422Z,46.35
2023-02-12T05:05:20.194Z,47.50
2023-02-12T05:07:48.504Z,49.90
2023-02-12T05:10:15.296Z,51.97
2023-02-12T05:12:42.060Z,50.17
2023-02-12T05:15:09.373Z,46.38
2023-02-12T05:17:35.937Z,50.33
2023-02-12T05:20:02.741Z,44.88
2023-02-12T05:22:29.310Z,49.15
2023-02-12T05:24:57.231Z,46.03
2023-02-12T05:27:23.795Z,46.95
2023-02-12T05:29:50.435Z,48.20
2023-02-12T05:32:17.246Z,46.35
2023-02-12T05:34:43.828Z,45.92
2023-02-12T05:37:10.272Z,48.30
2023-02-12T05:39:37.157Z,47.97
2023-02-12T05:42:05.220Z,49.07
2023-02-12T05:44:31.857Z,48.92
2023-02-12T05:46:58.695Z,53.90
2023-02-12T05:49:25.290Z,52.58
2023-02-12T05:51:51.923Z,47.42
2023-02-12T05:54:18.539Z,49.27
2023-02-12T05:56:47.056Z,52.10
2023-02-12T05:59:17.216Z,52.85
2023-02-12T06:01:45.555Z,52.88
2023-02-12T06:04:15.661Z,47.92
2023-02-12T06:06:42.843Z,50.20
2023-02-12T06:09:10.327Z,52.20
2023-02-12T06:11:37.401Z,50.70
2023-02-12T06:14:04.293Z,50.33
2023-02-12T06:16:33.674Z,48.88
2023-02-12T06:19:02.258Z,50.27
2023-02-12T06:21:29.603Z,52.28
2023-02-12T06:23:56.261Z,48.00
2023-02-12T06:26:23.688Z,46.25
2023-02-12T06:28:50.592Z,48.53
2023-02-12T06:31:19.645Z,48.50
2023-02-12T06:33:49.227Z,55.67
2023-02-12T06:36:16.326Z,45.67
2023-02-12T06:38:43.303Z,46.45
2023-02-12T06:41:10.320Z,47.80
2023-02-12T06:43:37.319Z,49.13
2023-02-12T06:46:05.250Z,51.25
2023-02-12T06:48:32.276Z,48.13
2023-02-12T06:51:06.239Z,46.95
2023-02-12T06:53:33.789Z,42.45
2023-02-12T06:56:01.187Z,47.93
2023-02-12T06:58:27.796Z,46.70
2023-02-12T07:00:54.369Z,46.95
2023-02-12T07:03:21.003Z,47.80
2023-02-12T07:05:47.706Z,48.20
2023-02-12T07:08:15.628Z,53.20
2023-02-12T07:10:42.215Z,47.58
2023-02-12T07:13:08.913Z,47.30
2023-02-12T07:15:39.094Z,46.28
2023-02-12T07:18:05.801Z,51.17
2023-02-12T07:20:32.393Z,45.77
2023-02-12T07:22:58.965Z,48.97
2023-02-12T07:25:26.961Z,45.13
2023-02-12T07:27:53.683Z,51.33
2023-02-12T07:30:20.376Z,46.20
2023-02-12T07:32:46.960Z,46.13
2023-02-12T07:35:13.558Z,45.95
2023-02-12T07:37:40.137Z,49.08
2023-02-12T07:40:08.432Z,53.17
2023-02-12T07:42:37.051Z,48.28
2023-02-12T07:45:03.783Z,48.83
2023-02-12T07:47:30.585Z,47.22
2023-02-12T07:49:57.286Z,48.60
2023-02-12T07:52:23.871Z,45.90
2023-02-12T07:54:50.424Z,45.60
2023-02-12T07:57:17.006Z,46.97
2023-02-12T07:59:44.880Z,51.63
2023-02-12T08:02:11.706Z,51.42
2023-02-12T08:04:38.374Z,53.67
2023-02-12T08:07:04.882Z,47.78
2023-02-12T08:09:31.451Z,50.23
2023-02-12T08:11:58.076Z,48.75
2023-02-12T08:14:24.835Z,46.97
2023-02-12T08:16:53.379Z,46.17
2023-02-12T08:19:24.063Z,45.92
2023-02-12T08:21:53.913Z,43.60
2023-02-12T08:24:20.839Z,47.17
2023-02-12T08:26:47.880Z,41.53
2023-02-12T08:29:17.145Z,44.72
2023-02-12T08:31:45.098Z,45.70
2023-02-12T08:34:18.370Z,43.10
2023-02-12T08:36:45.770Z,35.03
2023-02-12T08:39:13.230Z,39.67
2023-02-12T08:41:40.318Z,45.50
2023-02-12T08:44:06.851Z,49.75
2023-02-12T08:46:35.742Z,49.87
2023-02-12T08:49:05.796Z,47.85
2023-02-12T08:51:35.047Z,46.30
2023-02-12T08:54:05.090Z,48.67
2023-02-12T08:56:33.719Z,49.20
2023-02-12T08:59:02.366Z,49.60
2023-02-12T09:01:31.821Z,44.80
2023-02-12T09:03:59.152Z,45.22
2023-02-12T09:06:26.520Z,42.42
2023-02-12T09:08:55.345Z,45.95
2023-02-12T09:11:25.687Z,44.03
2023-02-12T09:13:53.030Z,45.72
2023-02-12T09:16:19.664Z,44.28
2023-02-12T09:18:46.284Z,43.30
2023-02-12T09:21:15.128Z,42.55
2023-02-12T09:23:44.803Z,43.37
2023-02-12T09:26:15.146Z,40.75
2023-02-12T09:28:42.546Z,40.47
2023-02-12T09:31:11.356Z,43.25
2023-02-12T09:33:38.553Z,40.85
2023-02-12T09:36:07.036Z,39.33
2023-02-12T09:38:34.214Z,36.92
2023-02-12T09:41:31.177Z,38.47
2023-02-12T09:44:02.982Z,38.40
2023-02-12T09:46:31.926Z,38.95
2023-02-12T09:49:08.152Z,39.10
2023-02-12T09:51:35.353Z,41.33
2023-02-12T09:54:06.158Z,33.50
2023-02-12T09:56:39.115Z,37.20
2023-02-12T09:59:09.082Z,42.53
2023-02-12T10:01:35.911Z,36.23
2023-02-12T10:04:11.426Z,30.15
2023-02-12T10:06:48.437Z,35.22
2023-02-12T10:09:26.690Z,31.30
2023-02-12T10:12:03.962Z,31.70
2023-02-12T10:14:49.493Z,33.03
2023-02-12T10:17:24.206Z,30.70
2023-02-12T10:20:09.053Z,33.47
2023-02-12T10:22:56.036Z,22.25
2023-02-12T10:25:32.161Z,26.25
2023-02-12T10:28:05.356Z,19.53
2023-02-12T10:30:40.825Z,25.70
2023-02-12T10:33:15.268Z,29.17
2023-02-12T10:35:46.911Z,33.03
2023-02-12T10:38:17.520Z,25.98
2023-02-12T10:40:45.852Z,26.47
2023-02-12T10:43:14.170Z,25.88
2023-02-12T10:45:42.946Z,27.92
2023-02-12T10:48:13.454Z,23.80
2023-02-12T10:50:52.034Z,21.90
2023-02-12T10:53:23.870Z,22.97
2023-02-12T10:56:04.300Z,20.67
2023-02-12T10:58:32.352Z,19.75
2023-02-12T11:01:00.776Z,19.40
2023-02-12T11:03:32.641Z,18.67
2023-02-12T11:06:11.890Z,19.77
2023-02-12T11:08:38.467Z,17.75
2023-02-12T11:11:09.948Z,19.88
2023-02-12T11:13:40.425Z,21.70
2023-02-12T11:16:08.504Z,18.35
2023-02-12T11:18:36.267Z,19.53
2023-02-12T11:21:06.085Z,17.77
2023-02-12T11:23:34.741Z,19.10
2023-02-12T11:26:04.740Z,21.48
2023-02-12T11:28:36.177Z,21.05
2023-02-12T11:31:21.600Z,16.87
2023-02-12T11:34:07.055Z,22.85
2023-02-12T11:36:36.484Z,18.23
2023-02-12T11:39:19.110Z,22.52
2023-02-12T11:41:51.635Z,21.95
2023-02-12T11:44:21.026Z,22.23
2023-02-12T11:47:09.744Z,24.48
2023-02-12T11:49:41.760Z,17.25
2023-02-12T11:52:21.456Z,20.23
2023-02-12T11:54:50.049Z,17.95
2023-02-12T11:57:35.962Z,18.83
2023-02-12T12:00:05.450Z,20.38
2023-02-12T12:02:37.573Z,17.42
2023-02-12T12:05:13.569Z,20.75
2023-02-12T12:07:45.129Z,23.58
2023-02-12T12:10:18.474Z,23.83
2023-02-12T12:12:51.007Z,20.25
2023-02-12T12:15:22.272Z,18.33
2023-02-12T12:17:56.427Z,23.40
2023-02-12T12:20:27.232Z,21.30
2023-02-12T12:23:00.950Z,22.20
2023-02-12T12:25:30.919Z,26.25
2023-02-12T12:28:05.516Z,20.05
2023-02-12T12:30:51.441Z,18.00
2023-02-12T12:33:26.397Z,17.75
2023-02-12T12:36:05.282Z,20.37
2023-02-12T12:38:44.061Z,22.50
2023-02-12T12:41:22.994Z,19.95
2023-02-12T12:44:05.789Z,22.20
2023-02-12T12:46:55.167Z,22.70
2023-02-12T12:49:37.430Z,19.97
2023-02-12T12:52:18.578Z,19.40
2023-02-12T12:54:58.578Z,20.27
2023-02-12T12:57:42.587Z,21.95
2023-02-12T13:00:27.536Z,22.30
2023-02-12T13:03:32.302Z,23.03
2023-02-12T13:06:31.737Z,23.65
2023-02-12T13:09:19.601Z,20.48
2023-02-12T13:11:57.075Z,24.52
2023-02-12T13:14:43.980Z,21.80
2023-02-12T13:17:20.374Z,22.43
2023-02-12T13:24:02.977Z,22.48
2023-02-12T13:26:41.377Z,26.02
2023-02-12T13:30:01.417Z,25.98
2023-02-12T13:32:30.127Z,29.17
2023-02-12T13:34:59.048Z,30.95
2023-02-12T13:37:45.450Z,28.45
2023-02-12T13:40:52.592Z,26.90
2023-02-12T13:43:36.404Z,24.00
2023-02-12T13:46:55.757Z,25.77
2023-02-12T13:50:06.158Z,29.10
2023-02-12T13:52:59.696Z,23.40
2023-02-12T13:55:33.173Z,22.55
2023-02-12T13:58:48.657Z,26.67
2023-02-12T14:01:50.847Z,23.97
2023-02-12T14:04:33.766Z,22.75
2023-02-12T14:07:04.061Z,25.38
2023-02-12T14:09:37.911Z,23.48
2023-02-12T14:12:07.306Z,27.88
2023-02-12T14:14:36.690Z,26.40
2023-02-12T14:17:45.272Z,28.73
2023-02-12T14:20:28.848Z,25.42
2023-02-12T14:23:27.778Z,26.27
2023-02-12T14:26:13.330Z,22.23
2023-02-12T14:28:50.251Z,28.00
2023-02-12T14:31:41.169Z,24.77
2023-02-12T14:34:47.472Z,25.23
2023-02-12T14:37:38.148Z,24.83
2023-02-12T14:40:30.910Z,26.80
2023-02-12T14:42:57.577Z,27.30
2023-02-12T14:45:32.495Z,27.52
2023-02-12T14:47:59.929Z,25.30
2023-02-12T14:50:35.998Z,26.23
2023-02-12T14:53:21.357Z,27.85
2023-02-12T14:55:48.318Z,30.17
2023-02-12T14:58:21.350Z,24.30
2023-02-12T15:00:50.745Z,28.48
2023-02-12T15:03:27.162Z,26.77
2023-02-12T15:06:01.221Z,23.77
2023-02-12T15:08:36.402Z,27.17
2023-02-12T15:11:14.365Z,25.83
2023-02-12T15:13:49.865Z,23.00
2023-02-12T15:16:27.196Z,27.15
2023-02-12T15:19:01.925Z,27.70
2023-02-12T15:21:31.164Z,27.17
2023-02-12T15:24:02.647Z,27.13
2023-02-12T15:26:31.941Z,27.45
2023-02-12T15:28:59.027Z,23.23
2023-02-12T15:31:27.906Z,27.73
2023-02-12T15:33:57.000Z,27.23
2023-02-12T15:36:26.096Z,21.92
2023-02-12T15:38:56.037Z,25.83
2023-02-12T15:41:36.591Z,24.95
2023-02-12T15:44:17.425Z,23.98
2023-02-12T15:46:56.160Z,28.20
2023-02-12T15:49:27.556Z,28.85
2023-02-12T15:51:54.613Z,31.10
2023-02-12T15:54:21.514Z,28.33
2023-02-12T15:56:49.686Z,29.65
2023-02-12T15:59:20.912Z,29.10
2023-02-12T16:01:53.668Z,29.55
2023-02-12T16:04:20.413Z,29.55
2023-02-12T16:06:47.200Z,28.63
2023-02-12T16:09:18.642Z,28.95
2023-02-12T16:11:48.832Z,27.43
2023-02-12T16:14:22.090Z,29.45
2023-02-12T16:16:51.719Z,32.60
2023-02-12T16:19:20.936Z,34.28
2023-02-12T16:21:50.294Z,27.00
2023-02-12T16:24:26.257Z,29.13
2023-02-12T16:26:55.248Z,27.10
2023-02-12T16:29:22.083Z,27.65
2023-02-12T16:31:57.406Z,30.50
2023-02-12T16:34:29.126Z,30.63
2023-02-12T16:36:55.976Z,30.10
2023-02-12T16:40:09.435Z,28.77
2023-02-12T16:42:37.914Z,32.00
2023-02-12T16:45:40.347Z,35.17
2023-02-12T16:48:14.931Z,26.20
2023-02-12T16:50:46.697Z,28.63
2023-02-12T16:53:37.200Z,30.05
2023-02-12T16:56:05.390Z,28.25
2023-02-12T16:58:33.366Z,30.17
2023-02-12T17:01:04.273Z,34.75
2023-02-12T17:03:31.417Z,30.57
2023-02-12T17:05:58.632Z,30.42
2023-02-12T17:08:25.469Z,30.88
2023-02-12T17:10:53.137Z,30.67
2023-02-12T17:13:19.887Z,27.63
2023-02-12T17:15:53.999Z,31.30
2023-02-12T17:18:21.124Z,38.92
2023-02-12T17:20:51.841Z,27.80
2023-02-12T17:23:18.612Z,29.55
2023-02-12T17:25:50.338Z,25.90
2023-02-12T17:28:17.135Z,27.73
2023-02-12T17:30:45.970Z,31.50
2023-02-12T17:43:31.276Z,25.70
2023-02-12T17:46:30.105Z,22.08
2023-02-12T19:09:19.762Z,7.40
2023-02-12T19:11:48.667Z,6.57
2023-02-12T19:14:16.671Z,7.38
2023-02-12T19:16:43.516Z,6.67
2023-02-12T19:19:10.322Z,7.78
2023-02-12T19:21:59.061Z,6.88
2023-02-12T19:24:46.200Z,7.68
2023-02-12T19:27:13.648Z,9.45
2023-02-12T19:29:40.265Z,7.03
2023-02-12T19:32:40.200Z,8.52
2023-02-12T19:35:12.608Z,12.43
2023-02-12T19:41:12.607Z,10.48
2023-02-12T19:43:39.602Z,9.53
2023-02-12T19:46:25.928Z,10.45
2023-02-12T19:48:56.092Z,11.48
2023-02-12T19:51:25.919Z,12.23
2023-02-12T19:55:06.495Z,12.95
2023-02-12T20:01:49.382Z,10.23
2023-02-12T20:04:52.877Z,9.85
2023-02-12T20:10:57.131Z,9.13
2023-02-12T20:13:24.005Z,8.40
2023-02-12T20:15:50.841Z,9.10
2023-02-12T20:18:19.516Z,10.55
2023-02-12T20:20:46.113Z,9.13
2023-02-12T20:23:12.689Z,10.20
2023-02-12T20:25:42.897Z,9.47
2023-02-12T20:28:09.803Z,9.35
2023-02-12T20:30:39.342Z,8.27
2023-02-12T20:33:06.077Z,12.57
2023-02-12T20:35:34.157Z,9.57
2023-02-12T20:38:00.775Z,10.33
2023-02-12T20:40:27.367Z,8.93
2023-02-12T20:42:54.009Z,9.02
2023-02-12T20:45:20.589Z,8.95
2023-02-12T20:47:47.215Z,8.90
2023-02-12T20:50:13.951Z,9.40
2023-02-12T20:52:42.080Z,9.65
2023-02-12T20:55:09.120Z,9.50
2023-02-12T20:57:37.393Z,11.77
2023-02-12T21:00:04.675Z,10.38
2023-02-12T21:02:32.567Z,9.83
2023-02-12T21:04:59.213Z,9.07
2023-02-12T21:07:26.076Z,9.95
2023-02-12T21:56:15.922Z,10.48
2023-02-12T21:58:43.130Z,11.05
2023-02-12T22:01:12.131Z,7.97
2023-02-12T22:03:38.826Z,8.73
2023-02-12T22:06:07.688Z,7.83
2023-02-12T22:08:37.137Z,10.25
2023-02-12T22:11:04.350Z,9.13
2023-02-12T22:13:32.461Z,9.20
2023-02-12T22:16:08.866Z,9.43
2023-02-12T22:18:35.566Z,7.93
2023-02-12T22:21:03.111Z,7.28
2023-02-12T22:23:29.817Z,9.23
2023-02-12T22:26:04.366Z,7.80
2023-02-12T22:28:32.917Z,7.57
2023-02-12T22:30:59.910Z,7.30
2023-02-12T22:33:27.078Z,8.68
2023-02-12T22:35:53.618Z,7.78
2023-02-12T22:38:20.211Z,8.10
2023-02-12T22:40:46.832Z,6.65
2023-02-12T22:43:13.408Z,6.33
2023-02-12T22:45:44.642Z,6.57
2023-02-12T22:48:11.219Z,7.15
2023-02-12T22:50:38.750Z,5.88
2023-02-12T22:53:05.995Z,7.53
2023-02-12T22:55:35.290Z,5.33
2023-02-12T22:58:01.883Z,5.82
2023-02-12T23:00:28.492Z,7.50
2023-02-12T23:02:56.542Z,7.22
2023-02-12T23:05:23.123Z,5.90
2023-02-12T23:07:49.711Z,7.67
2023-02-12T23:10:16.561Z,6.15
2023-02-12T23:12:43.185Z,6.57
2023-02-12T23:15:10.586Z,6.60
2023-02-12T23:17:37.213Z,8.43
2023-02-12T23:20:06.122Z,8.43
2023-02-12T23:22:32.737Z,6.85
2023-02-12T23:24:59.454Z,7.75
2023-02-12T23:27:26.156Z,6.68
2023-02-12T23:29:52.697Z,6.43
2023-02-12T23:32:19.312Z,7.17
2023-02-12T23:34:45.917Z,8.35
2023-02-12T23:37:13.901Z,7.97
2023-02-12T23:39:40.477Z,7.80
2023-02-12T23:42:07.540Z,8.30
2023-02-12T23:44:34.152Z,7.67
2023-02-12T23:47:00.715Z,8.68
2023-02-12T23:49:27.415Z,8.10
2023-02-12T23:51:54.042Z,9.32
2023-02-12T23:54:22.020Z,8.25
2023-02-12T23:56:48.553Z,8.20
2023-02-12T23:59:15.160Z,8.80
